This is the latest recevied weather packets stored in our database for station/object KE0FIN. If no packets are shown the sender has not sent any weather packets the latest 1 day(s).
| Time | Temp. | Humidity | Pressure | Rain* | Wind** | Luminosity | Snow |
|---|---|---|---|---|---|---|---|
| 1777986595 | 11.11° C | 62% | 1061.1 hPa | 0 mm | 0.89 m/s, 123° | 23 W/m² | - |
| 1777986292 | 11.11° C | 61% | 1060.9 hPa | 0 mm | 0.45 m/s, 114° | 16 W/m² | - |
| 1777985990 | 11.11° C | 59% | 1060.8 hPa | 0 mm | 1.34 m/s, 107° | 21 W/m² | - |
| 1777985687 | 11.11° C | 60% | 1060.6 hPa | 0 mm | 0 m/s | 18 W/m² | - |
| 1777985383 | 11.11° C | 61% | 1060.4 hPa | 0 mm | 0.45 m/s, 109° | 28 W/m² | - |
| 1777985080 | 11.11° C | 64% | 1060.4 hPa | 0 mm | 0.45 m/s, 112° | 27 W/m² | - |
| 1777984776 | 11.11° C | 62% | 1060.3 hPa | 0 mm | 0.45 m/s, 94° | 21 W/m² | - |
| 1777984473 | 11.11° C | 61% | 1060.1 hPa | 0 mm | 0.45 m/s, 130° | 19 W/m² | - |
| 1777984169 | 11.67° C | 58% | 1060.1 hPa | 0 mm | 1.79 m/s, 88° | 11 W/m² | - |
| 1777983867 | 11.67° C | 55% | 1060.3 hPa | 0 mm | 0 m/s | 10 W/m² | - |
| 1777983563 | 11.67° C | 55% | 1060.4 hPa | 0 mm | 0.45 m/s, 142° | 6 W/m² | - |
| 1777983261 | 11.67° C | 55% | 1060.7 hPa | 0 mm | 0.45 m/s, 119° | 3 W/m² | - |
| 1777982956 | 11.67° C | 54% | 1060.5 hPa | 0 mm | 0.89 m/s, 117° | 5 W/m² | - |
| 1777982653 | 12.22° C | 53% | 1060.6 hPa | 0 mm | 0.45 m/s, 132° | 5 W/m² | - |
| 1777982352 | 12.22° C | 52% | 1060.5 hPa | 0 mm | 0.89 m/s, 142° | 3 W/m² | - |
| 1777982048 | 12.22° C | 52% | 1060.4 hPa | 0 mm | 0.89 m/s, 135° | 2 W/m² | - |
| 1777981747 | 12.22° C | 52% | 1060 hPa | 0 mm | 0.89 m/s, 123° | 1 W/m² | - |
| 1777981442 | 12.22° C | 52% | 1059.8 hPa | 0 mm | 0.45 m/s, 98° | 1 W/m² | - |
| 1777981139 | 12.22° C | 52% | 1059.7 hPa | 0 mm | 0.45 m/s, 90° | 1 W/m² | - |
| 1777980836 | 12.22° C | 52% | 1059.1 hPa | 0 mm | 0.89 m/s, 122° | 1 W/m² | - |
| 1777980531 | 12.22° C | 52% | 1059.5 hPa | 0 mm | 0.45 m/s, 102° | 0 W/m² | - |
| 1777980229 | 12.22° C | 51% | 1059.6 hPa | 0 mm | 1.79 m/s, 105° | 0 W/m² | - |
| 1777979925 | 12.22° C | 51% | 1059.6 hPa | 0 mm | 1.79 m/s, 102° | 0 W/m² | - |
| 1777979620 | 12.22° C | 51% | 1059 hPa | 0 mm | 0.89 m/s, 136° | 0 W/m² | - |
| 1777979316 | 12.22° C | 51% | 1059 hPa | 0 mm | 0.45 m/s, 142° | 0 W/m² | - |
* Rain latest hour (hover to see other rain measurements)
** Current wind speed in m/s (hover to see current wind gust speed)